createdAt,value
2023-06-23T00:00:14.421Z,25.59
2023-06-23T00:01:18.565Z,25.58
2023-06-23T00:02:20.780Z,25.66
2023-06-23T00:03:23.678Z,25.51
2023-06-23T00:04:25.717Z,25.35
2023-06-23T00:05:28.535Z,25.47
2023-06-23T00:06:30.411Z,25.40
2023-06-23T00:07:32.561Z,25.37
2023-06-23T00:08:36.294Z,25.36
2023-06-23T00:09:38.755Z,25.45
2023-06-23T00:10:40.704Z,25.56
2023-06-23T00:11:46.955Z,25.51
2023-06-23T00:12:49.291Z,25.50
2023-06-23T00:13:52.186Z,25.57
2023-06-23T00:14:54.336Z,25.40
2023-06-23T00:15:58.694Z,25.34
2023-06-23T00:17:01.182Z,25.31
2023-06-23T00:18:03.519Z,25.45
2023-06-23T00:19:05.452Z,25.48
2023-06-23T00:20:13.581Z,25.49
2023-06-23T00:21:15.455Z,25.45
2023-06-23T00:22:17.790Z,25.41
2023-06-23T00:23:19.955Z,25.58
2023-06-23T00:24:22.521Z,25.46
2023-06-23T00:25:24.450Z,25.45
2023-06-23T00:26:26.674Z,25.42
2023-06-23T00:27:28.607Z,25.43
2023-06-23T00:28:30.912Z,25.56
2023-06-23T00:29:32.862Z,25.57
2023-06-23T00:30:35.943Z,25.54
2023-06-23T00:31:37.879Z,25.39
2023-06-23T00:32:42.894Z,25.35
2023-06-23T00:33:45.138Z,25.39
2023-06-23T00:34:47.054Z,25.51
2023-06-23T00:35:50.315Z,25.54
2023-06-23T00:36:52.163Z,25.48
2023-06-23T00:37:54.758Z,25.47
2023-06-23T00:38:57.283Z,25.38
2023-06-23T00:40:00.189Z,25.47
2023-06-23T00:41:04.789Z,25.51
2023-06-23T00:42:09.406Z,25.35
2023-06-23T00:43:11.353Z,25.24
2023-06-23T00:44:13.511Z,25.25
2023-06-23T00:45:16.408Z,25.30
2023-06-23T00:46:21.819Z,25.21
2023-06-23T00:47:25.455Z,25.20
2023-06-23T00:48:27.469Z,25.41
2023-06-23T00:49:30.365Z,25.40
2023-06-23T00:50:32.672Z,25.56
2023-06-23T00:51:34.938Z,25.41
2023-06-23T00:52:38.548Z,25.36
2023-06-23T00:53:40.430Z,25.34
2023-06-23T00:54:42.838Z,25.17
2023-06-23T00:55:45.938Z,25.18
2023-06-23T00:56:51.311Z,25.22
2023-06-23T00:57:55.473Z,25.13
2023-06-23T00:58:58.620Z,25.09
2023-06-23T01:00:01.044Z,25.05
2023-06-23T01:01:04.278Z,25.20
2023-06-23T01:02:07.255Z,25.11
2023-06-23T01:03:09.357Z,25.29
2023-06-23T01:04:11.468Z,25.14
2023-06-23T01:05:13.932Z,25.17
2023-06-23T01:06:25.524Z,24.98
2023-06-23T01:07:36.304Z,25.06
2023-06-23T01:09:06.664Z,25.01
2023-06-23T01:10:19.907Z,25.00
2023-06-23T01:11:36.738Z,25.07
2023-06-23T01:12:44.599Z,24.98
2023-06-23T01:14:12.343Z,24.94
2023-06-23T01:15:23.110Z,25.00
2023-06-23T01:16:34.024Z,25.03
2023-06-23T01:17:44.542Z,25.05
2023-06-23T01:19:21.516Z,24.92
2023-06-23T01:20:27.296Z,25.01
2023-06-23T01:22:08.749Z,24.87
2023-06-23T01:23:28.807Z,25.02
2023-06-23T01:24:36.381Z,24.99
2023-06-23T01:25:55.101Z,24.94
2023-06-23T01:27:15.626Z,24.91
2023-06-23T01:28:29.422Z,24.89
2023-06-23T01:29:35.391Z,24.98
2023-06-23T01:30:40.495Z,24.93
2023-06-23T01:31:57.445Z,24.94
2023-06-23T01:33:18.546Z,24.94
2023-06-23T01:34:24.576Z,24.90
2023-06-23T01:35:34.037Z,24.69
2023-06-23T01:36:44.296Z,24.75
2023-06-23T01:37:49.261Z,24.79
2023-06-23T01:38:56.950Z,24.97
2023-06-23T01:40:07.694Z,24.97
2023-06-23T01:41:19.771Z,25.01
2023-06-23T01:42:26.925Z,25.01
2023-06-23T01:43:31.078Z,24.94
2023-06-23T01:44:34.582Z,24.88
2023-06-23T01:45:40.709Z,25.03
2023-06-23T01:46:51.324Z,24.97
2023-06-23T01:47:54.788Z,24.87
2023-06-23T01:49:00.545Z,24.87
2023-06-23T01:50:05.612Z,24.67
2023-06-23T01:51:09.753Z,24.68
2023-06-23T01:52:14.508Z,24.63
2023-06-23T01:53:17.024Z,24.64
2023-06-23T01:54:20.441Z,24.71
2023-06-23T01:55:25.219Z,24.74
2023-06-23T01:56:28.061Z,24.86
2023-06-23T01:57:32.386Z,24.76
2023-06-23T01:58:38.531Z,24.73
2023-06-23T01:59:43.283Z,24.73
2023-06-23T02:00:46.899Z,24.63
2023-06-23T02:01:49.541Z,24.63
2023-06-23T02:02:54.497Z,24.68
2023-06-23T02:03:58.466Z,24.67
2023-06-23T02:05:00.707Z,24.67
2023-06-23T02:06:04.101Z,24.68
2023-06-23T02:07:07.770Z,24.70
2023-06-23T02:08:10.954Z,24.68
2023-06-23T02:09:18.672Z,24.71
2023-06-23T02:10:22.347Z,24.71
2023-06-23T02:11:26.371Z,24.74
2023-06-23T02:12:32.159Z,24.67
2023-06-23T02:13:36.500Z,24.58
2023-06-23T02:14:41.718Z,24.56
2023-06-23T02:15:43.780Z,24.59
2023-06-23T02:16:47.034Z,24.61
2023-06-23T02:17:51.120Z,24.52
2023-06-23T02:18:55.476Z,24.49
2023-06-23T02:19:59.587Z,24.52
2023-06-23T02:21:02.158Z,24.50
2023-06-23T02:22:07.470Z,24.50
2023-06-23T02:23:10.877Z,24.50
2023-06-23T02:24:14.206Z,24.28
2023-06-23T02:25:18.094Z,24.28
2023-06-23T02:26:20.852Z,24.30
2023-06-23T02:27:23.184Z,24.21
2023-06-23T02:28:25.381Z,24.27
2023-06-23T02:29:27.823Z,24.31
2023-06-23T02:30:31.181Z,24.20
2023-06-23T02:31:33.858Z,24.21
2023-06-23T02:32:35.918Z,24.20
2023-06-23T02:33:39.158Z,24.11
2023-06-23T02:34:41.017Z,24.17
2023-06-23T02:35:43.206Z,24.29
2023-06-23T02:36:49.374Z,24.23
2023-06-23T02:37:55.477Z,24.23
2023-06-23T02:39:00.747Z,24.25
2023-06-23T02:40:12.882Z,24.30
2023-06-23T02:41:17.001Z,24.32
2023-06-23T02:42:22.696Z,24.29
2023-06-23T02:43:36.766Z,24.23
2023-06-23T02:44:45.760Z,24.19
2023-06-23T02:45:50.578Z,24.21
2023-06-23T02:46:57.846Z,24.26
2023-06-23T02:48:01.639Z,24.19
2023-06-23T02:49:07.747Z,24.23
2023-06-23T02:50:15.468Z,24.25
2023-06-23T02:51:21.707Z,24.17
2023-06-23T02:52:28.107Z,24.16
2023-06-23T02:53:35.326Z,24.22
2023-06-23T02:54:44.024Z,24.24
2023-06-23T02:55:48.549Z,24.18
2023-06-23T02:56:52.728Z,24.22
2023-06-23T02:57:58.698Z,24.21
2023-06-23T02:59:06.288Z,24.28
2023-06-23T03:00:18.244Z,24.22
2023-06-23T03:01:23.534Z,24.23
2023-06-23T03:02:26.476Z,24.28
2023-06-23T03:03:31.164Z,24.16
2023-06-23T03:04:35.804Z,24.22
2023-06-23T03:05:37.649Z,24.21
2023-06-23T03:06:41.079Z,24.25
2023-06-23T03:07:43.002Z,24.29
2023-06-23T03:08:46.670Z,24.31
2023-06-23T03:09:48.567Z,24.37
2023-06-23T03:10:50.464Z,24.29
2023-06-23T03:11:52.336Z,24.27
2023-06-23T03:12:54.638Z,24.34
2023-06-23T03:13:57.663Z,24.35
2023-06-23T03:15:00.443Z,24.37
2023-06-23T03:16:07.248Z,24.34
2023-06-23T03:17:18.814Z,24.45
2023-06-23T03:18:26.042Z,24.51
2023-06-23T03:19:34.797Z,24.53
2023-06-23T03:20:51.620Z,24.55
2023-06-23T03:22:03.858Z,24.57
2023-06-23T03:23:10.517Z,24.47
2023-06-23T03:24:15.338Z,24.54
2023-06-23T03:25:23.899Z,24.56
2023-06-23T03:26:29.600Z,24.47
2023-06-23T03:27:34.642Z,24.49
2023-06-23T03:28:40.878Z,24.43
2023-06-23T03:29:57.233Z,24.45
2023-06-23T03:31:08.284Z,24.41
2023-06-23T03:32:13.840Z,24.52
2023-06-23T03:33:24.857Z,24.48
2023-06-23T03:34:35.425Z,24.52
2023-06-23T03:35:43.775Z,24.48
2023-06-23T03:36:47.587Z,24.40
2023-06-23T03:38:01.129Z,24.40
2023-06-23T03:39:25.121Z,24.44
2023-06-23T03:40:29.386Z,24.50
2023-06-23T03:41:32.639Z,24.58
2023-06-23T03:42:40.581Z,24.58
2023-06-23T03:43:48.493Z,24.67
2023-06-23T03:44:53.996Z,24.63
2023-06-23T03:46:01.212Z,24.69
2023-06-23T03:47:10.939Z,24.76
2023-06-23T03:48:15.204Z,24.82
2023-06-23T03:49:20.929Z,24.93
2023-06-23T03:50:27.082Z,24.86
2023-06-23T03:51:30.393Z,24.97
2023-06-23T03:52:34.403Z,24.94
2023-06-23T03:53:37.756Z,24.98
2023-06-23T03:54:41.501Z,24.92
2023-06-23T03:55:45.048Z,24.91
2023-06-23T03:56:50.253Z,24.97
2023-06-23T03:57:53.490Z,24.91
2023-06-23T03:58:56.388Z,24.90
2023-06-23T03:59:59.217Z,24.87
2023-06-23T04:01:04.029Z,24.92
2023-06-23T04:02:07.980Z,24.92
2023-06-23T04:03:12.675Z,24.90
2023-06-23T04:04:18.311Z,24.88
2023-06-23T04:05:22.261Z,24.78
2023-06-23T04:06:26.951Z,24.88
2023-06-23T04:07:30.977Z,24.94
2023-06-23T04:08:34.362Z,24.99
2023-06-23T04:09:38.029Z,24.96
2023-06-23T04:10:40.461Z,24.99
2023-06-23T04:11:44.494Z,24.91
2023-06-23T04:12:49.458Z,25.03
2023-06-23T04:13:53.101Z,25.11
2023-06-23T04:14:56.444Z,25.19
2023-06-23T04:16:01.998Z,25.11
2023-06-23T04:17:05.509Z,25.15
2023-06-23T04:18:09.712Z,25.05
2023-06-23T04:19:13.580Z,25.07
2023-06-23T04:20:17.102Z,24.98
2023-06-23T04:21:20.179Z,25.05
2023-06-23T04:22:23.845Z,25.00
2023-06-23T04:23:27.673Z,25.15
2023-06-23T04:24:31.544Z,25.09
2023-06-23T04:25:33.761Z,25.14
2023-06-23T04:26:37.880Z,25.07
2023-06-23T04:27:40.490Z,25.18
2023-06-23T04:28:44.998Z,25.17
2023-06-23T04:29:48.956Z,25.22
2023-06-23T04:30:52.554Z,25.13
2023-06-23T04:31:55.898Z,25.11
2023-06-23T04:32:57.963Z,25.01
2023-06-23T04:34:00.232Z,25.10
2023-06-23T04:35:02.341Z,25.14
2023-06-23T04:36:14.331Z,25.17
2023-06-23T04:37:39.556Z,25.32
2023-06-23T04:38:51.398Z,25.32
2023-06-23T04:40:09.546Z,25.44
2023-06-23T04:41:17.148Z,25.58
2023-06-23T04:42:25.895Z,25.51
2023-06-23T04:43:34.854Z,25.58
2023-06-23T04:44:50.104Z,25.76
2023-06-23T04:45:58.342Z,25.75
2023-06-23T04:47:04.590Z,25.58
2023-06-23T04:48:10.404Z,25.74
2023-06-23T04:49:17.289Z,25.63
2023-06-23T04:50:21.698Z,25.56
2023-06-23T04:51:29.731Z,25.60
2023-06-23T04:52:35.437Z,25.66
2023-06-23T04:53:54.465Z,25.65
2023-06-23T04:55:00.562Z,25.67
2023-06-23T04:56:06.708Z,25.73
2023-06-23T04:57:12.007Z,25.83
2023-06-23T04:58:14.961Z,25.77
2023-06-23T04:59:21.700Z,25.66
2023-06-23T05:00:25.432Z,25.62
2023-06-23T05:01:29.082Z,25.58
2023-06-23T05:02:33.860Z,25.54
2023-06-23T05:03:37.571Z,25.57
2023-06-23T05:04:41.977Z,25.67
2023-06-23T05:05:46.448Z,25.66
2023-06-23T05:06:49.956Z,25.82
2023-06-23T05:07:54.798Z,25.81
2023-06-23T05:08:59.300Z,25.76
2023-06-23T05:10:02.813Z,25.75
2023-06-23T05:11:07.575Z,25.80
2023-06-23T05:12:12.108Z,25.76
2023-06-23T05:13:18.348Z,25.85
2023-06-23T05:14:21.589Z,25.98
2023-06-23T05:15:25.092Z,25.97
2023-06-23T05:16:28.306Z,25.98
2023-06-23T05:17:33.343Z,25.88
2023-06-23T05:18:36.309Z,25.82
2023-06-23T05:19:42.298Z,25.86
2023-06-23T05:20:45.559Z,25.71
2023-06-23T05:21:49.828Z,25.97
2023-06-23T05:22:52.929Z,25.98
2023-06-23T05:23:57.391Z,25.96
2023-06-23T05:25:05.271Z,25.89
2023-06-23T05:26:10.168Z,25.94
2023-06-23T05:27:14.777Z,25.92
2023-06-23T05:28:18.322Z,25.94
2023-06-23T05:29:23.471Z,26.06
2023-06-23T05:30:25.857Z,26.19
2023-06-23T05:31:29.980Z,26.23
2023-06-23T05:32:35.635Z,26.19
2023-06-23T05:33:42.003Z,26.30
2023-06-23T05:34:50.767Z,26.39
2023-06-23T05:35:54.023Z,26.20
2023-06-23T05:36:57.035Z,26.27
2023-06-23T05:38:03.003Z,26.36
2023-06-23T05:39:07.115Z,26.49
2023-06-23T05:40:12.992Z,26.47
2023-06-23T05:41:15.997Z,26.63
2023-06-23T05:42:19.202Z,26.68
2023-06-23T05:43:21.137Z,26.80
2023-06-23T05:44:23.049Z,26.89
2023-06-23T05:45:25.432Z,27.06
2023-06-23T05:46:29.842Z,27.12
2023-06-23T05:47:37.315Z,27.10
2023-06-23T05:48:46.102Z,27.16
2023-06-23T05:49:51.382Z,27.07
2023-06-23T05:50:53.644Z,26.92
2023-06-23T05:52:02.214Z,26.86
2023-06-23T05:53:21.409Z,26.88
2023-06-23T05:54:27.018Z,26.88
2023-06-23T05:55:30.819Z,26.85
2023-06-23T05:56:40.342Z,26.86
2023-06-23T05:57:45.550Z,26.93
2023-06-23T05:58:52.041Z,27.11
2023-06-23T06:00:17.680Z,27.03
2023-06-23T06:01:23.090Z,27.18
2023-06-23T06:02:29.819Z,27.22
2023-06-23T06:03:38.492Z,27.30
2023-06-23T06:04:44.008Z,27.18
2023-06-23T06:05:48.744Z,27.26
2023-06-23T06:06:53.592Z,27.50
2023-06-23T06:07:57.910Z,27.51
2023-06-23T06:09:00.066Z,27.55
2023-06-23T06:10:03.900Z,27.64
2023-06-23T06:11:07.422Z,27.75
2023-06-23T06:12:12.145Z,27.85
2023-06-23T06:13:15.656Z,27.82
2023-06-23T06:14:19.470Z,27.80
2023-06-23T06:15:21.589Z,27.74
2023-06-23T06:16:25.449Z,27.83
2023-06-23T06:17:29.592Z,27.87
2023-06-23T06:18:33.370Z,27.91
2023-06-23T06:19:38.281Z,28.05
2023-06-23T06:20:42.292Z,28.04
2023-06-23T06:21:47.158Z,28.10
2023-06-23T06:22:53.532Z,27.95
2023-06-23T06:23:59.604Z,27.88
2023-06-23T06:25:04.167Z,27.97
2023-06-23T06:26:08.858Z,27.95
2023-06-23T06:27:11.044Z,28.17
2023-06-23T06:28:15.908Z,28.37
2023-06-23T06:29:19.879Z,28.35
2023-06-23T06:30:23.766Z,28.35
2023-06-23T06:31:28.342Z,28.34
2023-06-23T06:32:35.682Z,28.28
2023-06-23T06:33:40.737Z,28.14
2023-06-23T06:34:44.849Z,28.14
2023-06-23T06:35:49.996Z,28.16
2023-06-23T06:36:55.164Z,28.26
2023-06-23T06:37:57.770Z,28.20
2023-06-23T06:39:02.096Z,28.06
2023-06-23T06:40:07.739Z,28.08
2023-06-23T06:41:10.204Z,28.15
2023-06-23T06:42:13.041Z,28.35
2023-06-23T06:43:16.818Z,28.53
2023-06-23T06:44:19.354Z,28.64
2023-06-23T06:45:21.298Z,28.67
2023-06-23T06:46:23.353Z,28.76
2023-06-23T06:47:26.417Z,28.79
2023-06-23T06:48:29.965Z,28.71
2023-06-23T06:49:32.585Z,28.88
2023-06-23T06:50:34.769Z,28.97
2023-06-23T06:51:38.414Z,28.90
2023-06-23T06:52:45.777Z,28.87
2023-06-23T06:53:48.202Z,28.94
2023-06-23T06:54:52.729Z,29.19
2023-06-23T06:55:55.637Z,29.20
2023-06-23T06:56:58.660Z,29.12
2023-06-23T06:58:00.780Z,29.01
2023-06-23T06:59:04.029Z,28.81
2023-06-23T07:00:07.771Z,28.64
2023-06-23T07:01:11.001Z,28.77
2023-06-23T07:02:14.639Z,28.86
2023-06-23T07:03:17.544Z,29.06
2023-06-23T07:04:21.137Z,29.30
2023-06-23T07:05:23.434Z,29.27
2023-06-23T07:06:27.145Z,29.08
2023-06-23T07:07:31.597Z,28.94
2023-06-23T07:08:33.459Z,29.11
2023-06-23T07:09:35.324Z,29.25
2023-06-23T07:10:37.843Z,29.10
2023-06-23T07:11:39.731Z,29.03
2023-06-23T07:12:41.599Z,29.17
2023-06-23T07:13:43.444Z,29.31
2023-06-23T07:14:45.337Z,29.23
2023-06-23T07:15:47.619Z,29.41
2023-06-23T07:16:49.620Z,29.52
2023-06-23T07:17:51.560Z,29.42
2023-06-23T07:18:53.845Z,29.47
2023-06-23T07:19:55.730Z,29.59
2023-06-23T07:20:58.316Z,29.48
2023-06-23T07:22:00.510Z,29.37
2023-06-23T07:23:02.354Z,29.61
2023-06-23T07:24:04.284Z,29.71
2023-06-23T07:25:06.644Z,29.91
2023-06-23T07:26:08.782Z,30.10
2023-06-23T07:27:10.740Z,30.25
2023-06-23T07:28:12.694Z,30.43
2023-06-23T07:29:14.657Z,30.62
2023-06-23T07:30:17.441Z,30.69
2023-06-23T07:31:19.773Z,30.37
2023-06-23T07:32:21.680Z,30.13
2023-06-23T07:33:23.562Z,30.33
2023-06-23T07:34:26.301Z,30.27
2023-06-23T07:35:28.298Z,30.05
2023-06-23T07:36:30.433Z,29.97
2023-06-23T07:37:32.322Z,30.24
2023-06-23T07:38:34.306Z,30.25
2023-06-23T07:39:39.413Z,30.23
2023-06-23T07:40:41.255Z,30.40
2023-06-23T07:41:43.409Z,30.51
2023-06-23T07:42:45.261Z,30.81
2023-06-23T07:43:47.121Z,30.68
2023-06-23T07:44:48.976Z,30.82
2023-06-23T07:45:50.944Z,30.89
2023-06-23T07:46:53.259Z,31.11
2023-06-23T07:47:55.419Z,31.19
2023-06-23T07:48:57.344Z,31.18
2023-06-23T07:49:59.186Z,31.15
2023-06-23T07:51:01.110Z,31.02
2023-06-23T07:52:05.781Z,30.92
2023-06-23T07:53:07.654Z,31.17
2023-06-23T07:54:09.530Z,31.45
2023-06-23T07:55:11.564Z,31.32
2023-06-23T07:56:13.600Z,31.16
2023-06-23T07:57:15.781Z,31.12
2023-06-23T07:58:17.657Z,31.05
2023-06-23T07:59:19.525Z,31.20
2023-06-23T08:00:22.188Z,31.18
2023-06-23T08:01:24.634Z,31.17
2023-06-23T08:02:26.552Z,31.10
2023-06-23T08:03:28.665Z,31.43
2023-06-23T08:04:30.927Z,31.00
2023-06-23T08:05:33.209Z,31.21
2023-06-23T08:06:35.617Z,31.23
2023-06-23T08:07:37.588Z,31.44
2023-06-23T08:08:39.692Z,31.69
2023-06-23T08:09:41.566Z,31.72
2023-06-23T08:10:45.096Z,31.64
2023-06-23T08:11:47.228Z,31.56
2023-06-23T08:12:49.056Z,31.82
2023-06-23T08:13:51.814Z,31.38
2023-06-23T08:14:53.620Z,31.43
2023-06-23T08:15:55.479Z,31.38
2023-06-23T08:16:57.768Z,31.52
2023-06-23T08:17:59.743Z,31.89
2023-06-23T08:19:01.667Z,32.02
2023-06-23T08:20:04.369Z,31.89
2023-06-23T08:21:06.464Z,31.54
2023-06-23T08:22:08.900Z,31.89
2023-06-23T08:23:10.735Z,32.10
2023-06-23T08:24:12.641Z,31.68
2023-06-23T08:25:15.853Z,31.73
2023-06-23T08:26:17.946Z,31.71
2023-06-23T08:27:20.561Z,32.05
2023-06-23T08:28:22.472Z,32.44
2023-06-23T08:29:24.360Z,32.54
2023-06-23T08:30:29.881Z,32.71
2023-06-23T08:31:31.821Z,32.63
2023-06-23T08:32:34.401Z,32.62
2023-06-23T08:33:36.596Z,32.22
2023-06-23T08:34:39.152Z,31.93
2023-06-23T08:35:41.074Z,32.29
2023-06-23T08:36:42.955Z,32.28
2023-06-23T08:37:45.121Z,32.61
2023-06-23T08:38:46.982Z,32.55
2023-06-23T08:39:48.843Z,32.36
2023-06-23T08:40:51.401Z,32.13
2023-06-23T08:41:55.568Z,31.76
2023-06-23T08:42:58.616Z,31.86
2023-06-23T08:44:02.793Z,32.27
2023-06-23T08:45:07.946Z,32.66
2023-06-23T08:46:13.424Z,32.60
2023-06-23T08:47:20.078Z,32.84
2023-06-23T08:48:26.313Z,32.71
2023-06-23T08:49:31.704Z,32.80
2023-06-23T08:50:35.250Z,32.90
2023-06-23T08:51:37.871Z,33.16
2023-06-23T08:52:42.322Z,32.68
2023-06-23T08:53:46.880Z,32.31
2023-06-23T08:54:49.333Z,32.47
2023-06-23T08:55:52.334Z,32.76
2023-06-23T08:56:54.214Z,32.97
2023-06-23T08:58:01.295Z,33.11
2023-06-23T08:59:03.533Z,33.06
2023-06-23T09:00:06.533Z,33.26
2023-06-23T09:01:08.503Z,33.39
2023-06-23T09:02:10.550Z,33.21
2023-06-23T09:03:13.158Z,32.91
2023-06-23T09:04:16.049Z,32.86
2023-06-23T09:05:17.943Z,33.17
2023-06-23T09:06:19.927Z,32.83
2023-06-23T09:07:22.032Z,32.51
2023-06-23T09:08:23.951Z,32.53
2023-06-23T09:09:26.728Z,32.67
2023-06-23T09:10:28.673Z,32.89
2023-06-23T09:11:30.884Z,33.18
2023-06-23T09:12:33.452Z,33.29
2023-06-23T09:13:36.646Z,33.51
2023-06-23T09:14:39.107Z,33.57
2023-06-23T09:15:55.851Z,33.77
2023-06-23T09:17:02.684Z,33.88
2023-06-23T09:18:05.580Z,33.91
2023-06-23T09:19:08.485Z,33.80
2023-06-23T09:20:12.777Z,33.70
2023-06-23T09:21:14.692Z,33.28
2023-06-23T09:22:20.976Z,33.50
2023-06-23T09:23:24.129Z,33.63
2023-06-23T09:24:42.292Z,33.26
2023-06-23T09:25:48.407Z,33.48
2023-06-23T09:26:52.780Z,33.73
2023-06-23T09:27:54.669Z,34.06
2023-06-23T09:29:19.170Z,33.99
2023-06-23T09:30:21.014Z,33.86
2023-06-23T09:31:24.394Z,33.72
2023-06-23T09:32:30.555Z,34.12
2023-06-23T09:33:33.079Z,34.07
2023-06-23T09:34:35.685Z,33.94
2023-06-23T09:35:37.946Z,33.79
2023-06-23T09:36:40.924Z,33.71
2023-06-23T09:37:43.001Z,33.60
2023-06-23T09:38:45.396Z,33.83
2023-06-23T09:39:50.566Z,33.67
2023-06-23T09:41:18.191Z,33.55
2023-06-23T09:42:20.914Z,33.54
2023-06-23T09:43:22.806Z,33.82
2023-06-23T09:44:33.819Z,33.86
2023-06-23T09:45:35.730Z,33.82
2023-06-23T09:46:37.619Z,33.65
2023-06-23T09:47:39.824Z,33.96
2023-06-23T09:48:42.213Z,34.18
2023-06-23T09:49:49.455Z,33.91
2023-06-23T09:51:04.393Z,33.86
2023-06-23T09:52:07.591Z,34.17
2023-06-23T09:53:10.180Z,34.14
2023-06-23T09:54:12.117Z,34.13
2023-06-23T09:55:14.085Z,34.05
2023-06-23T09:56:21.055Z,33.98
2023-06-23T09:57:22.940Z,34.17
2023-06-23T09:58:25.108Z,34.32
2023-06-23T09:59:26.985Z,34.34
2023-06-23T10:00:32.865Z,33.89
2023-06-23T10:01:38.517Z,33.84
2023-06-23T10:02:40.616Z,33.93
2023-06-23T10:03:51.420Z,34.11
2023-06-23T10:05:01.814Z,34.15
2023-06-23T10:06:03.693Z,34.05
2023-06-23T10:07:23.786Z,33.99
2023-06-23T10:08:28.970Z,33.65
2023-06-23T10:09:30.852Z,33.45
2023-06-23T10:10:33.412Z,33.73
2023-06-23T10:11:37.711Z,33.94
2023-06-23T10:12:41.713Z,34.01
2023-06-23T10:13:45.220Z,34.09
2023-06-23T10:14:48.234Z,34.06
2023-06-23T10:15:50.243Z,33.93
2023-06-23T10:16:58.673Z,33.51
2023-06-23T10:18:01.265Z,33.62
2023-06-23T10:19:05.096Z,33.73
2023-06-23T10:20:07.824Z,33.95
2023-06-23T10:21:09.869Z,33.77
2023-06-23T10:22:15.202Z,33.79
2023-06-23T10:23:18.638Z,34.03
2023-06-23T10:24:20.578Z,34.36
2023-06-23T10:25:25.945Z,34.54
2023-06-23T10:26:31.080Z,34.55
2023-06-23T10:27:35.306Z,34.77
2023-06-23T10:28:41.078Z,34.86
2023-06-23T10:29:48.666Z,34.96
2023-06-23T10:30:50.889Z,34.50
2023-06-23T10:31:58.135Z,34.66
2023-06-23T10:33:03.323Z,34.75
2023-06-23T10:34:06.779Z,34.95
2023-06-23T10:35:11.768Z,35.10
2023-06-23T10:36:18.863Z,35.30
2023-06-23T10:37:31.669Z,35.35
2023-06-23T10:38:44.661Z,35.23
2023-06-23T10:39:51.703Z,34.53
2023-06-23T10:40:59.957Z,34.02
2023-06-23T10:42:02.248Z,34.21
2023-06-23T10:43:06.187Z,34.59
2023-06-23T10:44:09.703Z,34.85
2023-06-23T10:45:11.947Z,34.98
2023-06-23T10:46:14.996Z,35.10
2023-06-23T10:47:17.844Z,35.16
2023-06-23T10:48:19.986Z,35.20
2023-06-23T10:49:25.119Z,34.57
2023-06-23T10:50:31.161Z,34.67
2023-06-23T10:51:33.835Z,34.92
2023-06-23T10:52:35.775Z,34.87
2023-06-23T10:53:56.955Z,34.85
2023-06-23T10:54:59.421Z,35.09
2023-06-23T10:56:08.318Z,34.91
2023-06-23T10:57:12.849Z,34.90
2023-06-23T10:58:19.397Z,34.96
2023-06-23T10:59:24.126Z,34.82
2023-06-23T11:00:32.330Z,34.82
2023-06-23T11:02:00.327Z,34.75
2023-06-23T11:03:02.419Z,34.39
2023-06-23T11:04:27.563Z,34.58
2023-06-23T11:05:29.571Z,34.76
2023-06-23T11:06:36.934Z,34.76
2023-06-23T11:08:02.519Z,34.78
2023-06-23T11:09:24.307Z,34.77
2023-06-23T11:10:47.368Z,34.76
2023-06-23T11:11:49.352Z,34.59
2023-06-23T11:12:51.535Z,34.29
2023-06-23T11:13:53.514Z,34.72
2023-06-23T11:15:00.289Z,35.17
2023-06-23T11:16:03.285Z,34.75
2023-06-23T11:17:05.380Z,34.72
2023-06-23T11:18:07.901Z,34.94
2023-06-23T11:19:09.883Z,35.08
2023-06-23T11:20:30.145Z,35.19
2023-06-23T11:21:32.099Z,35.11
2023-06-23T11:22:34.020Z,34.95
2023-06-23T11:23:36.261Z,34.82
2023-06-23T11:24:52.956Z,34.78
2023-06-23T11:25:54.900Z,34.82
2023-06-23T11:27:03.843Z,34.93
2023-06-23T11:28:27.196Z,35.18
2023-06-23T11:29:29.851Z,34.81
2023-06-23T11:30:31.754Z,35.14
2023-06-23T11:31:33.782Z,35.36
2023-06-23T11:32:35.781Z,35.32
2023-06-23T11:33:41.195Z,35.27
2023-06-23T11:34:55.303Z,35.18
2023-06-23T11:36:00.754Z,35.11
2023-06-23T11:37:02.976Z,35.14
2023-06-23T11:38:06.039Z,35.23
2023-06-23T11:39:09.301Z,35.18
2023-06-23T11:40:12.348Z,35.31
2023-06-23T11:41:16.398Z,35.27
2023-06-23T11:42:18.355Z,35.37
2023-06-23T11:43:25.972Z,34.80
2023-06-23T11:44:28.769Z,34.81
2023-06-23T11:45:32.731Z,35.03
2023-06-23T11:46:35.531Z,34.94
2023-06-23T11:47:38.533Z,34.83
2023-06-23T11:48:42.188Z,34.40
2023-06-23T11:49:44.383Z,34.73
2023-06-23T11:50:46.865Z,34.84
2023-06-23T11:51:49.000Z,34.62
2023-06-23T11:52:52.989Z,34.57
2023-06-23T11:53:55.138Z,34.23
2023-06-23T11:54:57.817Z,34.38
2023-06-23T11:56:01.473Z,34.45
2023-06-23T11:57:04.446Z,34.73
2023-06-23T11:58:06.372Z,34.97
2023-06-23T11:59:11.566Z,35.11
2023-06-23T12:00:14.391Z,35.02
2023-06-23T12:01:19.141Z,34.99
2023-06-23T12:02:21.702Z,35.07
2023-06-23T12:03:23.873Z,34.84
2023-06-23T12:04:25.897Z,35.06
2023-06-23T12:05:31.313Z,35.43
2023-06-23T12:06:37.463Z,35.67
2023-06-23T12:07:39.860Z,35.64
2023-06-23T12:08:41.784Z,35.62
2023-06-23T12:09:43.745Z,35.47
2023-06-23T12:10:48.061Z,35.26
2023-06-23T12:11:50.218Z,35.26
2023-06-23T12:12:53.766Z,34.95
2023-06-23T12:13:55.613Z,34.64
2023-06-23T12:15:01.158Z,34.48
2023-06-23T12:16:03.032Z,34.73
2023-06-23T12:17:06.600Z,35.02
2023-06-23T12:18:09.699Z,35.19
2023-06-23T12:19:11.701Z,35.09
2023-06-23T12:20:17.556Z,35.30
2023-06-23T12:21:22.338Z,35.15
2023-06-23T12:22:24.489Z,35.19
2023-06-23T12:23:26.398Z,35.11
2023-06-23T12:24:30.653Z,35.22
2023-06-23T12:25:38.645Z,35.33
2023-06-23T12:26:42.299Z,35.05
2023-06-23T12:27:52.070Z,35.22
2023-06-23T12:29:09.290Z,34.79
2023-06-23T12:30:19.142Z,35.08
2023-06-23T12:31:31.288Z,35.06
2023-06-23T12:32:34.415Z,34.89
2023-06-23T12:33:41.599Z,35.13
2023-06-23T12:34:46.340Z,35.13
2023-06-23T12:36:04.140Z,34.99
2023-06-23T12:37:08.077Z,34.94
2023-06-23T12:38:10.917Z,34.88
2023-06-23T12:39:19.165Z,35.18
2023-06-23T12:40:36.922Z,35.33
2023-06-23T12:41:40.021Z,35.49
2023-06-23T12:42:43.637Z,35.47
2023-06-23T12:43:49.862Z,35.50
2023-06-23T12:44:52.098Z,35.49
2023-06-23T12:45:58.346Z,35.23
2023-06-23T12:47:02.438Z,35.41
2023-06-23T12:48:07.367Z,35.40
2023-06-23T12:49:11.386Z,35.30
2023-06-23T12:50:19.749Z,35.24
2023-06-23T12:51:37.879Z,35.26
2023-06-23T12:52:39.876Z,34.88
2023-06-23T12:53:43.036Z,34.68
2023-06-23T12:54:45.235Z,34.89
2023-06-23T12:55:47.615Z,34.54
2023-06-23T12:56:49.540Z,34.53
2023-06-23T12:57:52.281Z,34.94
2023-06-23T12:58:54.535Z,35.15
2023-06-23T12:59:56.414Z,35.21
2023-06-23T13:00:58.658Z,35.34
2023-06-23T13:02:00.980Z,35.08
2023-06-23T13:03:05.799Z,35.14
2023-06-23T13:04:08.880Z,35.29
2023-06-23T13:05:10.965Z,34.94
2023-06-23T13:06:13.534Z,35.17
2023-06-23T13:07:15.531Z,35.20
2023-06-23T13:08:17.575Z,35.36
2023-06-23T13:09:19.865Z,35.52
2023-06-23T13:10:21.904Z,35.31
2023-06-23T13:11:25.045Z,35.13
2023-06-23T13:12:26.969Z,35.33
2023-06-23T13:13:29.110Z,35.37
2023-06-23T13:14:31.041Z,35.40
2023-06-23T13:15:33.722Z,35.42
2023-06-23T13:16:36.524Z,35.59
2023-06-23T13:17:38.495Z,35.29
2023-06-23T13:18:40.922Z,35.20
2023-06-23T13:19:42.837Z,35.47
2023-06-23T13:20:44.701Z,35.63
2023-06-23T13:21:49.247Z,35.72
2023-06-23T13:22:51.166Z,35.57
2023-06-23T13:23:53.014Z,35.48
2023-06-23T13:24:57.557Z,35.57
2023-06-23T13:25:59.499Z,35.63
2023-06-23T13:27:01.712Z,35.24
2023-06-23T13:28:03.766Z,35.45
2023-06-23T13:29:05.680Z,35.41
2023-06-23T13:30:08.267Z,35.42
2023-06-23T13:31:10.734Z,35.18
2023-06-23T13:32:14.271Z,34.81
2023-06-23T13:33:16.169Z,34.96
2023-06-23T13:34:18.077Z,34.86
2023-06-23T13:35:20.039Z,34.82
2023-06-23T13:36:22.116Z,35.06
2023-06-23T13:37:24.460Z,35.03
2023-06-23T13:38:26.296Z,34.92
2023-06-23T13:39:28.204Z,34.89
2023-06-23T13:40:30.089Z,35.06
2023-06-23T13:41:31.955Z,35.13
2023-06-23T13:42:34.133Z,35.28
2023-06-23T13:43:36.028Z,35.38
2023-06-23T13:44:37.918Z,35.49
2023-06-23T13:45:39.912Z,35.64
2023-06-23T13:46:41.795Z,35.45
2023-06-23T13:47:44.140Z,35.34
2023-06-23T13:48:46.045Z,35.18
2023-06-23T13:49:48.080Z,35.21
2023-06-23T13:50:49.981Z,35.16
2023-06-23T13:51:51.933Z,35.30
2023-06-23T13:52:54.148Z,35.09
2023-06-23T13:53:56.018Z,35.22
2023-06-23T13:54:57.835Z,35.17